sensor_id;sensor_type;location;lat;lon;timestamp;temperature;humidity
64961;SHT31;51487;52.266;10.542;2023-02-02T00:01:25;5.39;85.02
64961;SHT31;51487;52.266;10.542;2023-02-02T00:03:52;5.39;85.12
64961;SHT31;51487;52.266;10.542;2023-02-02T00:06:20;5.31;85.03
64961;SHT31;51487;52.266;10.542;2023-02-02T00:08:46;5.23;85.17
64961;SHT31;51487;52.266;10.542;2023-02-02T00:11:12;5.22;85.22
64961;SHT31;51487;52.266;10.542;2023-02-02T00:13:38;5.18;85.41
64961;SHT31;51487;52.266;10.542;2023-02-02T00:18:59;5.15;85.75
64961;SHT31;51487;52.266;10.542;2023-02-02T00:21:25;5.12;85.65
64961;SHT31;51487;52.266;10.542;2023-02-02T00:23:51;5.12;85.53
64961;SHT31;51487;52.266;10.542;2023-02-02T00:26:18;5.13;85.09
64961;SHT31;51487;52.266;10.542;2023-02-02T00:28:44;5.27;84.57
64961;SHT31;51487;52.266;10.542;2023-02-02T00:31:10;5.30;84.58
64961;SHT31;51487;52.266;10.542;2023-02-02T00:33:36;5.37;84.07
64961;SHT31;51487;52.266;10.542;2023-02-02T00:36:02;5.39;84.21
64961;SHT31;51487;52.266;10.542;2023-02-02T00:38:29;5.43;83.73
64961;SHT31;51487;52.266;10.542;2023-02-02T00:40:55;5.40;84.06
64961;SHT31;51487;52.266;10.542;2023-02-02T00:43:20;5.43;83.77
64961;SHT31;51487;52.266;10.542;2023-02-02T00:45:46;5.39;83.95
64961;SHT31;51487;52.266;10.542;2023-02-02T00:48:12;5.37;84.08
64961;SHT31;51487;52.266;10.542;2023-02-02T00:50:37;5.39;83.71
64961;SHT31;51487;52.266;10.542;2023-02-02T00:53:03;5.39;83.58
64961;SHT31;51487;52.266;10.542;2023-02-02T00:55:29;5.31;83.54
64961;SHT31;51487;52.266;10.542;2023-02-02T00:57:54;5.29;83.91
64961;SHT31;51487;52.266;10.542;2023-02-02T01:00:23;5.27;83.57
64961;SHT31;51487;52.266;10.542;2023-02-02T01:02:51;5.22;83.67
64961;SHT31;51487;52.266;10.542;2023-02-02T01:05:17;5.16;83.63
64961;SHT31;51487;52.266;10.542;2023-02-02T01:07:44;5.16;83.45
64961;SHT31;51487;52.266;10.542;2023-02-02T01:12:41;5.08;83.59
64961;SHT31;51487;52.266;10.542;2023-02-02T01:15:09;5.08;83.32
64961;SHT31;51487;52.266;10.542;2023-02-02T01:17:34;5.12;83.34
64961;SHT31;51487;52.266;10.542;2023-02-02T01:20:00;5.16;83.06
64961;SHT31;51487;52.266;10.542;2023-02-02T01:22:25;5.20;82.95
64961;SHT31;51487;52.266;10.542;2023-02-02T01:24:51;5.24;83.10
64961;SHT31;51487;52.266;10.542;2023-02-02T01:27:17;5.26;82.91
64961;SHT31;51487;52.266;10.542;2023-02-02T01:29:43;5.20;83.19
64961;SHT31;51487;52.266;10.542;2023-02-02T01:32:08;5.29;83.15
64961;SHT31;51487;52.266;10.542;2023-02-02T01:34:35;5.30;83.27
64961;SHT31;51487;52.266;10.542;2023-02-02T01:37:00;5.29;83.25
64961;SHT31;51487;52.266;10.542;2023-02-02T01:39:26;5.27;83.61
64961;SHT31;51487;52.266;10.542;2023-02-02T01:41:51;5.23;83.65
64961;SHT31;51487;52.266;10.542;2023-02-02T01:47:20;5.09;84.37
64961;SHT31;51487;52.266;10.542;2023-02-02T01:49:46;5.08;84.47
64961;SHT31;51487;52.266;10.542;2023-02-02T01:52:16;5.06;84.43
64961;SHT31;51487;52.266;10.542;2023-02-02T01:54:51;4.99;84.50
64961;SHT31;51487;52.266;10.542;2023-02-02T01:57:53;5.05;84.71
64961;SHT31;51487;52.266;10.542;2023-02-02T02:00:20;5.00;84.70
64961;SHT31;51487;52.266;10.542;2023-02-02T02:02:56;4.93;84.90
64961;SHT31;51487;52.266;10.542;2023-02-02T02:05:31;4.88;84.61
64961;SHT31;51487;52.266;10.542;2023-02-02T02:08:28;4.93;84.33
64961;SHT31;51487;52.266;10.542;2023-02-02T02:10:54;4.82;84.84
64961;SHT31;51487;52.266;10.542;2023-02-02T02:13:23;4.83;84.64
64961;SHT31;51487;52.266;10.542;2023-02-02T02:40:02;4.95;84.21
64961;SHT31;51487;52.266;10.542;2023-02-02T02:42:37;4.85;84.51
64961;SHT31;51487;52.266;10.542;2023-02-02T02:45:04;4.85;84.70
64961;SHT31;51487;52.266;10.542;2023-02-02T02:47:33;4.81;84.86
64961;SHT31;51487;52.266;10.542;2023-02-02T02:49:59;4.83;84.79
64961;SHT31;51487;52.266;10.542;2023-02-02T02:52:25;4.88;84.90
64961;SHT31;51487;52.266;10.542;2023-02-02T02:54:55;4.85;84.79
64961;SHT31;51487;52.266;10.542;2023-02-02T02:58:01;4.91;84.53
64961;SHT31;51487;52.266;10.542;2023-02-02T03:03:57;4.97;84.71
64961;SHT31;51487;52.266;10.542;2023-02-02T03:06:57;4.99;84.75
64961;SHT31;51487;52.266;10.542;2023-02-02T03:09:33;4.97;84.84
64961;SHT31;51487;52.266;10.542;2023-02-02T03:12:00;4.92;85.10
64961;SHT31;51487;52.266;10.542;2023-02-02T03:14:26;4.92;85.17
64961;SHT31;51487;52.266;10.542;2023-02-02T03:16:52;4.88;85.44
64961;SHT31;51487;52.266;10.542;2023-02-02T03:19:18;4.86;85.29
64961;SHT31;51487;52.266;10.542;2023-02-02T03:21:43;4.85;85.50
64961;SHT31;51487;52.266;10.542;2023-02-02T03:24:09;4.85;85.52
64961;SHT31;51487;52.266;10.542;2023-02-02T03:26:35;4.71;85.83
64961;SHT31;51487;52.266;10.542;2023-02-02T03:29:02;4.72;85.97
64961;SHT31;51487;52.266;10.542;2023-02-02T03:31:28;4.68;85.98
64961;SHT31;51487;52.266;10.542;2023-02-02T03:33:55;4.65;86.23
64961;SHT31;51487;52.266;10.542;2023-02-02T03:36:21;4.68;86.14
64961;SHT31;51487;52.266;10.542;2023-02-02T03:38:47;4.64;86.24
64961;SHT31;51487;52.266;10.542;2023-02-02T03:41:12;4.58;86.43
64961;SHT31;51487;52.266;10.542;2023-02-02T03:43:38;4.64;86.10
64961;SHT31;51487;52.266;10.542;2023-02-02T03:46:06;4.60;86.23
64961;SHT31;51487;52.266;10.542;2023-02-02T03:48:37;4.61;86.23
64961;SHT31;51487;52.266;10.542;2023-02-02T03:51:13;4.71;85.85
64961;SHT31;51487;52.266;10.542;2023-02-02T03:53:40;4.78;85.58
64961;SHT31;51487;52.266;10.542;2023-02-02T03:56:08;4.85;85.35
64961;SHT31;51487;52.266;10.542;2023-02-02T03:58:34;4.85;85.53
64961;SHT31;51487;52.266;10.542;2023-02-02T04:01:10;4.79;85.62
64961;SHT31;51487;52.266;10.542;2023-02-02T04:03:36;4.73;85.94
64961;SHT31;51487;52.266;10.542;2023-02-02T04:06:02;4.76;86.18
64961;SHT31;51487;52.266;10.542;2023-02-02T04:08:28;4.73;85.99
64961;SHT31;51487;52.266;10.542;2023-02-02T04:10:54;4.64;86.33
64961;SHT31;51487;52.266;10.542;2023-02-02T04:13:20;4.61;86.39
64961;SHT31;51487;52.266;10.542;2023-02-02T04:15:45;4.62;86.36
64961;SHT31;51487;52.266;10.542;2023-02-02T04:18:11;4.68;86.21
64961;SHT31;51487;52.266;10.542;2023-02-02T04:20:36;4.62;86.44
64961;SHT31;51487;52.266;10.542;2023-02-02T04:23:02;4.61;86.54
64961;SHT31;51487;52.266;10.542;2023-02-02T04:25:27;4.58;86.75
64961;SHT31;51487;52.266;10.542;2023-02-02T04:27:53;4.57;86.70
64961;SHT31;51487;52.266;10.542;2023-02-02T04:30:19;4.54;86.76
64961;SHT31;51487;52.266;10.542;2023-02-02T04:32:45;4.52;86.95
64961;SHT31;51487;52.266;10.542;2023-02-02T04:35:11;4.58;86.96
64961;SHT31;51487;52.266;10.542;2023-02-02T04:37:36;4.61;86.88
64961;SHT31;51487;52.266;10.542;2023-02-02T04:40:02;4.61;86.94
64961;SHT31;51487;52.266;10.542;2023-02-02T04:42:28;4.58;87.26
64961;SHT31;51487;52.266;10.542;2023-02-02T04:44:56;4.55;87.43
64961;SHT31;51487;52.266;10.542;2023-02-02T04:47:22;4.65;87.13
64961;SHT31;51487;52.266;10.542;2023-02-02T04:49:47;4.61;87.35
64961;SHT31;51487;52.266;10.542;2023-02-02T04:52:13;4.65;87.28
64961;SHT31;51487;52.266;10.542;2023-02-02T04:54:38;4.62;87.31
64961;SHT31;51487;52.266;10.542;2023-02-02T04:57:04;4.69;87.25
64961;SHT31;51487;52.266;10.542;2023-02-02T04:59:29;4.68;87.38
64961;SHT31;51487;52.266;10.542;2023-02-02T05:02:02;4.69;87.42
64961;SHT31;51487;52.266;10.542;2023-02-02T05:04:28;4.62;87.57
64961;SHT31;51487;52.266;10.542;2023-02-02T05:06:54;4.71;87.31
64961;SHT31;51487;52.266;10.542;2023-02-02T05:09:19;4.69;87.34
64961;SHT31;51487;52.266;10.542;2023-02-02T05:11:45;4.83;87.06
64961;SHT31;51487;52.266;10.542;2023-02-02T05:14:10;4.83;86.89
64961;SHT31;51487;52.266;10.542;2023-02-02T05:16:36;4.92;86.75
64961;SHT31;51487;52.266;10.542;2023-02-02T05:19:02;4.86;86.79
64961;SHT31;51487;52.266;10.542;2023-02-02T05:21:28;4.88;86.93
64961;SHT31;51487;52.266;10.542;2023-02-02T05:23:53;4.89;86.97
64961;SHT31;51487;52.266;10.542;2023-02-02T05:26:25;4.82;87.25
64961;SHT31;51487;52.266;10.542;2023-02-02T05:28:50;4.82;87.64
64961;SHT31;51487;52.266;10.542;2023-02-02T05:31:17;4.72;87.92
64961;SHT31;51487;52.266;10.542;2023-02-02T05:33:43;4.68;88.11
64961;SHT31;51487;52.266;10.542;2023-02-02T05:36:09;4.76;87.98
64961;SHT31;51487;52.266;10.542;2023-02-02T05:38:34;4.85;87.94
64961;SHT31;51487;52.266;10.542;2023-02-02T05:41:01;4.72;88.17
64961;SHT31;51487;52.266;10.542;2023-02-02T05:43:29;4.79;88.02
64961;SHT31;51487;52.266;10.542;2023-02-02T05:45:55;4.85;88.15
64961;SHT31;51487;52.266;10.542;2023-02-02T05:48:20;4.73;88.59
64961;SHT31;51487;52.266;10.542;2023-02-02T05:50:58;4.76;88.54
64961;SHT31;51487;52.266;10.542;2023-02-02T05:53:28;4.88;88.42
64961;SHT31;51487;52.266;10.542;2023-02-02T05:55:53;4.85;88.42
64961;SHT31;51487;52.266;10.542;2023-02-02T05:58:19;4.78;88.52
64961;SHT31;51487;52.266;10.542;2023-02-02T06:00:44;4.79;88.78
64961;SHT31;51487;52.266;10.542;2023-02-02T06:03:10;4.79;88.62
64961;SHT31;51487;52.266;10.542;2023-02-02T06:05:37;4.82;88.42
64961;SHT31;51487;52.266;10.542;2023-02-02T06:08:03;4.86;88.38
64961;SHT31;51487;52.266;10.542;2023-02-02T06:10:29;4.89;88.52
64961;SHT31;51487;52.266;10.542;2023-02-02T06:12:57;4.93;88.23
64961;SHT31;51487;52.266;10.542;2023-02-02T06:15:23;4.95;88.20
64961;SHT31;51487;52.266;10.542;2023-02-02T06:17:49;4.91;88.37
64961;SHT31;51487;52.266;10.542;2023-02-02T06:20:14;4.89;88.56
64961;SHT31;51487;52.266;10.542;2023-02-02T06:22:40;4.91;88.36
64961;SHT31;51487;52.266;10.542;2023-02-02T06:25:07;4.91;88.52
64961;SHT31;51487;52.266;10.542;2023-02-02T06:27:33;4.81;88.77
64961;SHT31;51487;52.266;10.542;2023-02-02T06:29:58;4.81;88.71
64961;SHT31;51487;52.266;10.542;2023-02-02T06:32:24;4.76;88.75
64961;SHT31;51487;52.266;10.542;2023-02-02T06:34:49;4.82;88.54
64961;SHT31;51487;52.266;10.542;2023-02-02T06:37:15;4.79;88.80
64961;SHT31;51487;52.266;10.542;2023-02-02T06:39:41;4.83;88.60
64961;SHT31;51487;52.266;10.542;2023-02-02T06:42:06;4.83;88.63
64961;SHT31;51487;52.266;10.542;2023-02-02T06:44:32;4.88;88.82
64961;SHT31;51487;52.266;10.542;2023-02-02T06:46:57;4.82;88.91
64961;SHT31;51487;52.266;10.542;2023-02-02T06:49:23;4.76;88.84
64961;SHT31;51487;52.266;10.542;2023-02-02T06:51:48;4.79;88.75
64961;SHT31;51487;52.266;10.542;2023-02-02T06:54:14;4.81;88.95
64961;SHT31;51487;52.266;10.542;2023-02-02T06:56:40;4.79;88.99
64961;SHT31;51487;52.266;10.542;2023-02-02T06:59:05;4.68;89.24
64961;SHT31;51487;52.266;10.542;2023-02-02T07:01:31;4.76;89.52
64961;SHT31;51487;52.266;10.542;2023-02-02T07:03:57;4.71;89.35
64961;SHT31;51487;52.266;10.542;2023-02-02T07:06:27;4.76;89.24
64961;SHT31;51487;52.266;10.542;2023-02-02T07:08:53;4.76;89.03
64961;SHT31;51487;52.266;10.542;2023-02-02T07:11:20;4.73;89.30
64961;SHT31;51487;52.266;10.542;2023-02-02T07:13:48;4.79;89.14
64961;SHT31;51487;52.266;10.542;2023-02-02T07:16:16;4.79;89.27
64961;SHT31;51487;52.266;10.542;2023-02-02T07:18:42;4.79;89.21
64961;SHT31;51487;52.266;10.542;2023-02-02T07:21:15;4.82;89.05
64961;SHT31;51487;52.266;10.542;2023-02-02T07:23:41;4.83;89.09
64961;SHT31;51487;52.266;10.542;2023-02-02T07:26:09;4.79;89.41
64961;SHT31;51487;52.266;10.542;2023-02-02T07:28:35;4.92;89.25
64961;SHT31;51487;52.266;10.542;2023-02-02T07:31:18;4.95;89.02
64961;SHT31;51487;52.266;10.542;2023-02-02T07:33:44;4.97;88.87
64961;SHT31;51487;52.266;10.542;2023-02-02T07:36:12;5.03;88.65
64961;SHT31;51487;52.266;10.542;2023-02-02T07:38:41;5.08;88.54
64961;SHT31;51487;52.266;10.542;2023-02-02T07:41:07;5.18;88.47
64961;SHT31;51487;52.266;10.542;2023-02-02T07:43:32;5.26;88.38
64961;SHT31;51487;52.266;10.542;2023-02-02T07:46:03;5.34;87.99
64961;SHT31;51487;52.266;10.542;2023-02-02T07:48:32;5.29;87.90
64961;SHT31;51487;52.266;10.542;2023-02-02T07:51:06;5.39;88.09
64961;SHT31;51487;52.266;10.542;2023-02-02T07:53:33;5.44;87.86
64961;SHT31;51487;52.266;10.542;2023-02-02T07:56:13;5.36;87.69
64961;SHT31;51487;52.266;10.542;2023-02-02T07:58:40;5.48;87.65
64961;SHT31;51487;52.266;10.542;2023-02-02T08:01:10;5.40;87.89
64961;SHT31;51487;52.266;10.542;2023-02-02T08:03:36;5.64;87.52
64961;SHT31;51487;52.266;10.542;2023-02-02T08:08:35;5.79;86.86
64961;SHT31;51487;52.266;10.542;2023-02-02T08:11:01;5.81;86.75
64961;SHT31;51487;52.266;10.542;2023-02-02T08:13:26;5.72;87.07
64961;SHT31;51487;52.266;10.542;2023-02-02T08:15:51;5.87;86.54
64961;SHT31;51487;52.266;10.542;2023-02-02T08:18:17;5.97;86.28
64961;SHT31;51487;52.266;10.542;2023-02-02T08:20:42;5.94;86.75
64961;SHT31;51487;52.266;10.542;2023-02-02T08:23:08;5.88;86.95
64961;SHT31;51487;52.266;10.542;2023-02-02T08:25:40;5.99;86.54
64961;SHT31;51487;52.266;10.542;2023-02-02T08:28:06;6.12;86.08
64961;SHT31;51487;52.266;10.542;2023-02-02T08:30:33;6.15;85.88
64961;SHT31;51487;52.266;10.542;2023-02-02T08:32:59;6.22;86.12
64961;SHT31;51487;52.266;10.542;2023-02-02T08:35:25;6.15;86.31
64961;SHT31;51487;52.266;10.542;2023-02-02T08:37:50;6.12;86.24
64961;SHT31;51487;52.266;10.542;2023-02-02T08:40:16;6.13;86.63
64961;SHT31;51487;52.266;10.542;2023-02-02T08:42:42;6.10;86.71
64961;SHT31;51487;52.266;10.542;2023-02-02T08:45:08;6.10;86.63
64961;SHT31;51487;52.266;10.542;2023-02-02T08:47:34;6.08;86.90
64961;SHT31;51487;52.266;10.542;2023-02-02T08:49:59;6.08;86.97
64961;SHT31;51487;52.266;10.542;2023-02-02T08:52:25;6.10;87.00
64961;SHT31;51487;52.266;10.542;2023-02-02T08:54:50;6.22;86.75
64961;SHT31;51487;52.266;10.542;2023-02-02T08:57:15;6.23;86.59
64961;SHT31;51487;52.266;10.542;2023-02-02T08:59:41;6.22;86.70
64961;SHT31;51487;52.266;10.542;2023-02-02T09:02:10;6.25;86.56
64961;SHT31;51487;52.266;10.542;2023-02-02T09:04:38;6.29;86.61
64961;SHT31;51487;52.266;10.542;2023-02-02T09:07:04;6.10;87.36
64961;SHT31;51487;52.266;10.542;2023-02-02T09:09:31;6.32;86.74
64961;SHT31;51487;52.266;10.542;2023-02-02T09:11:56;6.34;86.55
64961;SHT31;51487;52.266;10.542;2023-02-02T09:14:22;6.54;86.35
64961;SHT31;51487;52.266;10.542;2023-02-02T09:16:47;6.44;86.57
64961;SHT31;51487;52.266;10.542;2023-02-02T09:19:13;6.56;86.10
64961;SHT31;51487;52.266;10.542;2023-02-02T09:21:38;6.47;86.15
64961;SHT31;51487;52.266;10.542;2023-02-02T09:24:11;6.56;85.95
64961;SHT31;51487;52.266;10.542;2023-02-02T09:26:37;6.49;86.38
64961;SHT31;51487;52.266;10.542;2023-02-02T09:29:09;6.51;86.44
64961;SHT31;51487;52.266;10.542;2023-02-02T09:31:37;6.53;86.08
64961;SHT31;51487;52.266;10.542;2023-02-02T09:34:05;6.74;85.54
64961;SHT31;51487;52.266;10.542;2023-02-02T09:36:32;6.71;84.99
64961;SHT31;51487;52.266;10.542;2023-02-02T09:38:58;6.58;86.02
64961;SHT31;51487;52.266;10.542;2023-02-02T09:50:35;6.51;85.49
64961;SHT31;51487;52.266;10.542;2023-02-02T09:53:31;6.50;85.64
64961;SHT31;51487;52.266;10.542;2023-02-02T09:56:05;6.70;85.19
64961;SHT31;51487;52.266;10.542;2023-02-02T09:58:41;6.97;84.33
64961;SHT31;51487;52.266;10.542;2023-02-02T10:01:35;6.67;84.96
64961;SHT31;51487;52.266;10.542;2023-02-02T10:06:46;6.91;84.59
64961;SHT31;51487;52.266;10.542;2023-02-02T10:14:47;7.07;83.82
64961;SHT31;51487;52.266;10.542;2023-02-02T10:17:50;7.05;84.01
64961;SHT31;51487;52.266;10.542;2023-02-02T10:23:25;7.19;83.83
64961;SHT31;51487;52.266;10.542;2023-02-02T10:32:04;6.99;83.39
64961;SHT31;51487;52.266;10.542;2023-02-02T10:35:24;7.29;82.97
64961;SHT31;51487;52.266;10.542;2023-02-02T10:40:58;6.70;85.49
64961;SHT31;51487;52.266;10.542;2023-02-02T10:43:57;6.49;86.96
64961;SHT31;51487;52.266;10.542;2023-02-02T10:46:53;6.68;86.85
64961;SHT31;51487;52.266;10.542;2023-02-02T10:54:52;6.46;87.78
64961;SHT31;51487;52.266;10.542;2023-02-02T11:00:17;6.05;89.94
64961;SHT31;51487;52.266;10.542;2023-02-02T11:02:46;6.03;88.47
64961;SHT31;51487;52.266;10.542;2023-02-02T11:05:26;6.12;89.05
64961;SHT31;51487;52.266;10.542;2023-02-02T11:08:20;6.01;89.86
64961;SHT31;51487;52.266;10.542;2023-02-02T11:10:51;6.20;89.97
64961;SHT31;51487;52.266;10.542;2023-02-02T11:13:47;6.30;89.81
64961;SHT31;51487;52.266;10.542;2023-02-02T11:18:42;6.58;88.33
64961;SHT31;51487;52.266;10.542;2023-02-02T11:21:30;6.57;88.70
64961;SHT31;51487;52.266;10.542;2023-02-02T11:24:10;6.67;88.83
64961;SHT31;51487;52.266;10.542;2023-02-02T11:26:53;6.84;87.68
64961;SHT31;51487;52.266;10.542;2023-02-02T11:29:31;6.76;87.48
64961;SHT31;51487;52.266;10.542;2023-02-02T11:34:41;6.81;87.86
64961;SHT31;51487;52.266;10.542;2023-02-02T11:37:19;7.01;87.22
64961;SHT31;51487;52.266;10.542;2023-02-02T11:39:45;7.12;86.30
64961;SHT31;51487;52.266;10.542;2023-02-02T11:42:17;7.08;86.07
64961;SHT31;51487;52.266;10.542;2023-02-02T11:44:53;7.11;85.03
64961;SHT31;51487;52.266;10.542;2023-02-02T11:47:30;7.22;85.29
64961;SHT31;51487;52.266;10.542;2023-02-02T11:49:58;7.04;84.73
64961;SHT31;51487;52.266;10.542;2023-02-02T11:52:27;7.22;84.19
64961;SHT31;51487;52.266;10.542;2023-02-02T11:54:58;7.22;84.54
64961;SHT31;51487;52.266;10.542;2023-02-02T11:57:27;7.38;84.32
64961;SHT31;51487;52.266;10.542;2023-02-02T12:00:18;7.40;84.21
64961;SHT31;51487;52.266;10.542;2023-02-02T12:02:50;7.28;83.98
64961;SHT31;51487;52.266;10.542;2023-02-02T12:07:46;7.62;83.87
64961;SHT31;51487;52.266;10.542;2023-02-02T12:10:48;7.87;81.05
64961;SHT31;51487;52.266;10.542;2023-02-02T12:13:57;7.59;81.46
64961;SHT31;51487;52.266;10.542;2023-02-02T12:25:36;7.45;82.30
64961;SHT31;51487;52.266;10.542;2023-02-02T12:31:31;7.55;80.97
64961;SHT31;51487;52.266;10.542;2023-02-02T12:39:59;7.60;80.13
64961;SHT31;51487;52.266;10.542;2023-02-02T12:48:39;7.73;80.20
64961;SHT31;51487;52.266;10.542;2023-02-02T12:51:37;7.60;80.41
64961;SHT31;51487;52.266;10.542;2023-02-02T12:57:33;7.28;80.58
64961;SHT31;51487;52.266;10.542;2023-02-02T13:09:13;7.19;80.51
64961;SHT31;51487;52.266;10.542;2023-02-02T13:11:47;7.16;79.59
64961;SHT31;51487;52.266;10.542;2023-02-02T13:17:08;7.09;80.30
64961;SHT31;51487;52.266;10.542;2023-02-02T13:19:41;7.15;80.30
64961;SHT31;51487;52.266;10.542;2023-02-02T13:22:27;7.23;80.47
64961;SHT31;51487;52.266;10.542;2023-02-02T13:24:58;7.36;80.12
64961;SHT31;51487;52.266;10.542;2023-02-02T13:27:25;7.38;80.02
64961;SHT31;51487;52.266;10.542;2023-02-02T13:30:16;7.60;79.52
64961;SHT31;51487;52.266;10.542;2023-02-02T13:32:49;7.59;78.72
64961;SHT31;51487;52.266;10.542;2023-02-02T13:35:51;7.57;77.72
64961;SHT31;51487;52.266;10.542;2023-02-02T13:38:29;7.66;78.05
64961;SHT31;51487;52.266;10.542;2023-02-02T13:41:00;7.55;78.67
64961;SHT31;51487;52.266;10.542;2023-02-02T13:43:54;7.57;79.09
64961;SHT31;51487;52.266;10.542;2023-02-02T13:46:49;7.46;79.42
64961;SHT31;51487;52.266;10.542;2023-02-02T13:49:23;7.42;79.64
64961;SHT31;51487;52.266;10.542;2023-02-02T13:58:27;7.56;79.42
64961;SHT31;51487;52.266;10.542;2023-02-02T14:01:05;7.49;79.87
64961;SHT31;51487;52.266;10.542;2023-02-02T14:03:51;7.39;80.17
64961;SHT31;51487;52.266;10.542;2023-02-02T14:06:20;7.39;80.15
64961;SHT31;51487;52.266;10.542;2023-02-02T14:08:58;7.47;79.41
64961;SHT31;51487;52.266;10.542;2023-02-02T14:13:58;7.46;79.47
64961;SHT31;51487;52.266;10.542;2023-02-02T14:16:49;7.47;79.61
64961;SHT31;51487;52.266;10.542;2023-02-02T14:24:50;7.71;80.65
64961;SHT31;51487;52.266;10.542;2023-02-02T14:34:51;7.59;81.61
64961;SHT31;51487;52.266;10.542;2023-02-02T14:48:46;7.45;81.47
64961;SHT31;51487;52.266;10.542;2023-02-02T14:51:18;7.55;81.12
64961;SHT31;51487;52.266;10.542;2023-02-02T14:53:57;7.35;81.05
64961;SHT31;51487;52.266;10.542;2023-02-02T14:56:44;7.46;81.14
64961;SHT31;51487;52.266;10.542;2023-02-02T14:59:36;7.29;81.49
64961;SHT31;51487;52.266;10.542;2023-02-02T15:04:37;7.40;81.34
64961;SHT31;51487;52.266;10.542;2023-02-02T15:07:37;7.25;81.76
64961;SHT31;51487;52.266;10.542;2023-02-02T15:13:20;7.29;82.37
64961;SHT31;51487;52.266;10.542;2023-02-02T15:15:54;7.19;82.85
64961;SHT31;51487;52.266;10.542;2023-02-02T15:18:31;7.01;84.20
64961;SHT31;51487;52.266;10.542;2023-02-02T15:21:04;6.98;84.95
64961;SHT31;51487;52.266;10.542;2023-02-02T15:23:40;6.61;86.73
64961;SHT31;51487;52.266;10.542;2023-02-02T15:26:23;6.68;87.35
64961;SHT31;51487;52.266;10.542;2023-02-02T15:28:51;6.61;87.69
64961;SHT31;51487;52.266;10.542;2023-02-02T15:31:32;6.47;88.73
64961;SHT31;51487;52.266;10.542;2023-02-02T15:34:14;6.20;89.71
64961;SHT31;51487;52.266;10.542;2023-02-02T15:36:43;6.30;90.16
64961;SHT31;51487;52.266;10.542;2023-02-02T15:39:35;6.19;90.47
64961;SHT31;51487;52.266;10.542;2023-02-02T15:42:12;6.19;90.03
64961;SHT31;51487;52.266;10.542;2023-02-02T15:44:57;6.22;89.90
64961;SHT31;51487;52.266;10.542;2023-02-02T15:47:32;6.22;89.98
64961;SHT31;51487;52.266;10.542;2023-02-02T15:50:03;6.22;90.16
64961;SHT31;51487;52.266;10.542;2023-02-02T15:52:47;6.34;90.04
64961;SHT31;51487;52.266;10.542;2023-02-02T15:55:31;6.40;89.39
64961;SHT31;51487;52.266;10.542;2023-02-02T15:57:58;6.43;89.17
64961;SHT31;51487;52.266;10.542;2023-02-02T16:00:27;6.32;89.19
64961;SHT31;51487;52.266;10.542;2023-02-02T16:03:13;6.29;89.37
64961;SHT31;51487;52.266;10.542;2023-02-02T16:05:46;6.23;89.86
64961;SHT31;51487;52.266;10.542;2023-02-02T16:08:18;6.23;89.19
64961;SHT31;51487;52.266;10.542;2023-02-02T16:10:45;6.12;89.71
64961;SHT31;51487;52.266;10.542;2023-02-02T16:13:24;6.09;90.22
64961;SHT31;51487;52.266;10.542;2023-02-02T16:15:56;6.08;89.83
64961;SHT31;51487;52.266;10.542;2023-02-02T16:18:22;6.10;89.80
64961;SHT31;51487;52.266;10.542;2023-02-02T16:20:48;6.03;90.15
64961;SHT31;51487;52.266;10.542;2023-02-02T16:23:26;6.09;89.62
64961;SHT31;51487;52.266;10.542;2023-02-02T16:25:54;6.13;89.14
64961;SHT31;51487;52.266;10.542;2023-02-02T16:28:22;6.10;89.28
64961;SHT31;51487;52.266;10.542;2023-02-02T16:30:50;6.16;89.28
64961;SHT31;51487;52.266;10.542;2023-02-02T16:33:43;6.22;88.90
64961;SHT31;51487;52.266;10.542;2023-02-02T16:36:22;6.25;89.10
64961;SHT31;51487;52.266;10.542;2023-02-02T16:38:50;6.18;89.29
64961;SHT31;51487;52.266;10.542;2023-02-02T16:41:34;6.18;89.37
64961;SHT31;51487;52.266;10.542;2023-02-02T16:44:34;6.25;89.00
64961;SHT31;51487;52.266;10.542;2023-02-02T16:47:01;6.28;88.81
64961;SHT31;51487;52.266;10.542;2023-02-02T16:49:29;6.25;89.21
64961;SHT31;51487;52.266;10.542;2023-02-02T16:54:32;6.23;88.75
64961;SHT31;51487;52.266;10.542;2023-02-02T16:57:01;6.22;88.98
64961;SHT31;51487;52.266;10.542;2023-02-02T16:59:31;6.18;88.79
64961;SHT31;51487;52.266;10.542;2023-02-02T17:02:20;6.26;88.41
64961;SHT31;51487;52.266;10.542;2023-02-02T17:04:52;6.20;88.69
64961;SHT31;51487;52.266;10.542;2023-02-02T17:07:20;6.16;88.72
64961;SHT31;51487;52.266;10.542;2023-02-02T17:09:47;6.20;88.87
64961;SHT31;51487;52.266;10.542;2023-02-02T17:15:01;6.08;89.10
64961;SHT31;51487;52.266;10.542;2023-02-02T17:17:30;6.08;89.15
64961;SHT31;51487;52.266;10.542;2023-02-02T17:19:55;6.03;88.96
64961;SHT31;51487;52.266;10.542;2023-02-02T17:22:24;6.12;88.58
64961;SHT31;51487;52.266;10.542;2023-02-02T17:24:51;6.16;88.65
64961;SHT31;51487;52.266;10.542;2023-02-02T17:27:25;6.10;88.91
64961;SHT31;51487;52.266;10.542;2023-02-02T17:29:53;6.13;88.88
64961;SHT31;51487;52.266;10.542;2023-02-02T17:32:18;6.22;88.75
64961;SHT31;51487;52.266;10.542;2023-02-02T17:34:44;6.19;88.31
64961;SHT31;51487;52.266;10.542;2023-02-02T17:37:10;6.13;88.57
64961;SHT31;51487;52.266;10.542;2023-02-02T17:39:37;6.10;88.64
64961;SHT31;51487;52.266;10.542;2023-02-02T17:42:04;6.15;88.07
64961;SHT31;51487;52.266;10.542;2023-02-02T17:44:30;6.16;88.08
64961;SHT31;51487;52.266;10.542;2023-02-02T17:46:56;6.18;87.87
64961;SHT31;51487;52.266;10.542;2023-02-02T17:49:21;6.10;87.68
64961;SHT31;51487;52.266;10.542;2023-02-02T17:51:47;6.10;87.47
64961;SHT31;51487;52.266;10.542;2023-02-02T17:54:14;6.05;87.73
64961;SHT31;51487;52.266;10.542;2023-02-02T17:56:41;6.09;87.82
64961;SHT31;51487;52.266;10.542;2023-02-02T17:59:08;6.19;88.06
64961;SHT31;51487;52.266;10.542;2023-02-02T18:01:37;6.19;87.82
64961;SHT31;51487;52.266;10.542;2023-02-02T18:04:06;6.29;87.53
64961;SHT31;51487;52.266;10.542;2023-02-02T18:06:31;6.22;87.76
64961;SHT31;51487;52.266;10.542;2023-02-02T18:08:57;6.23;87.78
64961;SHT31;51487;52.266;10.542;2023-02-02T18:11:22;6.28;87.78
64961;SHT31;51487;52.266;10.542;2023-02-02T18:13:48;6.34;87.91
64961;SHT31;51487;52.266;10.542;2023-02-02T18:16:13;6.28;87.56
64961;SHT31;51487;52.266;10.542;2023-02-02T18:18:39;6.36;87.04
64961;SHT31;51487;52.266;10.542;2023-02-02T18:21:10;6.33;87.40
64961;SHT31;51487;52.266;10.542;2023-02-02T18:23:36;6.25;87.53
64961;SHT31;51487;52.266;10.542;2023-02-02T18:26:18;6.25;87.11
64961;SHT31;51487;52.266;10.542;2023-02-02T18:28:45;6.20;87.45
64961;SHT31;51487;52.266;10.542;2023-02-02T18:31:16;6.02;87.67
64961;SHT31;51487;52.266;10.542;2023-02-02T18:33:44;6.10;87.71
64961;SHT31;51487;52.266;10.542;2023-02-02T18:36:14;6.02;87.95
64961;SHT31;51487;52.266;10.542;2023-02-02T18:38:43;6.03;87.38
64961;SHT31;51487;52.266;10.542;2023-02-02T18:41:11;5.99;87.30